sensor_id;sensor_type;location;lat;lon;timestamp;pressure;altitude;pressure_sealevel;temperature;humidity
15272;BME280;7737;51.578;7.268;2023-04-07T00:00:28;100888.41;;;8.40;100.00
15272;BME280;7737;51.578;7.268;2023-04-07T00:02:55;100881.31;;;8.40;100.00
15272;BME280;7737;51.578;7.268;2023-04-07T00:05:22;100881.03;;;8.48;100.00
15272;BME280;7737;51.578;7.268;2023-04-07T00:07:48;100879.31;;;8.47;100.00
15272;BME280;7737;51.578;7.268;2023-04-07T00:10:16;100876.09;;;8.39;100.00
15272;BME280;7737;51.578;7.268;2023-04-07T00:12:42;100882.75;;;8.49;100.00
15272;BME280;7737;51.578;7.268;2023-04-07T00:15:09;100875.69;;;8.49;100.00
15272;BME280;7737;51.578;7.268;2023-04-07T00:17:36;100882.53;;;8.55;100.00
15272;BME280;7737;51.578;7.268;2023-04-07T00:20:03;100872.28;;;8.46;100.00
15272;BME280;7737;51.578;7.268;2023-04-07T00:22:30;100871.00;;;8.33;100.00
15272;BME280;7737;51.578;7.268;2023-04-07T00:24:56;100876.00;;;8.40;100.00
15272;BME280;7737;51.578;7.268;2023-04-07T00:27:24;100878.19;;;8.29;100.00
15272;BME280;7737;51.578;7.268;2023-04-07T00:29:51;100876.41;;;8.30;100.00
15272;BME280;7737;51.578;7.268;2023-04-07T00:32:19;100875.88;;;8.20;100.00
15272;BME280;7737;51.578;7.268;2023-04-07T00:34:46;100873.66;;;8.33;100.00
15272;BME280;7737;51.578;7.268;2023-04-07T00:37:12;100870.16;;;8.32;100.00
15272;BME280;7737;51.578;7.268;2023-04-07T00:39:39;100871.44;;;8.21;100.00
15272;BME280;7737;51.578;7.268;2023-04-07T00:42:05;100867.75;;;8.25;100.00
15272;BME280;7737;51.578;7.268;2023-04-07T00:44:33;100868.56;;;8.28;100.00
15272;BME280;7737;51.578;7.268;2023-04-07T00:47:00;100873.16;;;8.22;100.00
15272;BME280;7737;51.578;7.268;2023-04-07T00:49:27;100866.63;;;8.32;100.00
15272;BME280;7737;51.578;7.268;2023-04-07T00:51:54;100867.19;;;8.40;100.00
15272;BME280;7737;51.578;7.268;2023-04-07T00:54:22;100866.47;;;8.36;100.00
15272;BME280;7737;51.578;7.268;2023-04-07T00:56:48;100857.38;;;8.43;100.00
15272;BME280;7737;51.578;7.268;2023-04-07T00:59:15;100856.50;;;8.43;100.00
15272;BME280;7737;51.578;7.268;2023-04-07T01:01:49;100865.50;;;8.39;100.00
15272;BME280;7737;51.578;7.268;2023-04-07T01:04:23;100858.91;;;8.49;100.00
15272;BME280;7737;51.578;7.268;2023-04-07T01:06:54;100854.19;;;8.57;100.00
15272;BME280;7737;51.578;7.268;2023-04-07T01:09:26;100846.66;;;8.46;100.00
15272;BME280;7737;51.578;7.268;2023-04-07T01:11:59;100846.13;;;8.37;100.00
15272;BME280;7737;51.578;7.268;2023-04-07T01:14:33;100846.38;;;8.31;100.00
15272;BME280;7737;51.578;7.268;2023-04-07T01:17:06;100847.22;;;8.31;100.00
15272;BME280;7737;51.578;7.268;2023-04-07T01:19:36;100857.16;;;8.25;100.00
15272;BME280;7737;51.578;7.268;2023-04-07T01:22:07;100849.16;;;8.26;100.00
15272;BME280;7737;51.578;7.268;2023-04-07T01:24:49;100846.50;;;8.28;100.00
15272;BME280;7737;51.578;7.268;2023-04-07T01:27:33;100848.09;;;8.32;100.00
15272;BME280;7737;51.578;7.268;2023-04-07T01:30:04;100843.53;;;8.35;100.00
15272;BME280;7737;51.578;7.268;2023-04-07T01:32:34;100847.75;;;8.41;100.00
15272;BME280;7737;51.578;7.268;2023-04-07T01:35:03;100844.03;;;8.45;100.00
15272;BME280;7737;51.578;7.268;2023-04-07T01:37:31;100852.66;;;8.50;100.00
15272;BME280;7737;51.578;7.268;2023-04-07T01:39:58;100850.50;;;8.38;100.00
15272;BME280;7737;51.578;7.268;2023-04-07T01:42:25;100851.41;;;8.37;100.00
15272;BME280;7737;51.578;7.268;2023-04-07T01:44:52;100845.63;;;8.27;100.00
15272;BME280;7737;51.578;7.268;2023-04-07T01:47:21;100851.56;;;8.34;100.00
15272;BME280;7737;51.578;7.268;2023-04-07T01:49:48;100841.34;;;8.46;100.00
15272;BME280;7737;51.578;7.268;2023-04-07T01:52:16;100840.38;;;8.49;100.00
15272;BME280;7737;51.578;7.268;2023-04-07T01:54:43;100841.84;;;8.56;100.00
15272;BME280;7737;51.578;7.268;2023-04-07T01:57:09;100843.59;;;8.57;100.00
15272;BME280;7737;51.578;7.268;2023-04-07T01:59:36;100840.84;;;8.58;100.00
15272;BME280;7737;51.578;7.268;2023-04-07T02:02:02;100841.97;;;8.53;100.00
15272;BME280;7737;51.578;7.268;2023-04-07T02:04:34;100836.78;;;8.50;100.00
15272;BME280;7737;51.578;7.268;2023-04-07T02:07:07;100830.69;;;8.48;100.00
15272;BME280;7737;51.578;7.268;2023-04-07T02:09:37;100835.13;;;8.47;100.00
15272;BME280;7737;51.578;7.268;2023-04-07T02:12:07;100829.66;;;8.52;100.00
15272;BME280;7737;51.578;7.268;2023-04-07T02:14:35;100837.66;;;8.50;100.00
15272;BME280;7737;51.578;7.268;2023-04-07T02:17:03;100840.00;;;8.58;100.00
15272;BME280;7737;51.578;7.268;2023-04-07T02:19:31;100834.97;;;8.52;100.00
15272;BME280;7737;51.578;7.268;2023-04-07T02:22:00;100839.16;;;8.57;100.00
15272;BME280;7737;51.578;7.268;2023-04-07T02:24:28;100839.00;;;8.61;100.00
15272;BME280;7737;51.578;7.268;2023-04-07T02:26:54;100836.66;;;8.53;100.00
15272;BME280;7737;51.578;7.268;2023-04-07T02:29:21;100836.78;;;8.50;100.00
15272;BME280;7737;51.578;7.268;2023-04-07T02:31:48;100838.28;;;8.57;100.00
15272;BME280;7737;51.578;7.268;2023-04-07T02:34:14;100839.88;;;8.61;100.00
15272;BME280;7737;51.578;7.268;2023-04-07T02:36:42;100836.31;;;8.62;100.00
15272;BME280;7737;51.578;7.268;2023-04-07T02:39:08;100832.97;;;8.57;100.00
15272;BME280;7737;51.578;7.268;2023-04-07T02:41:35;100838.28;;;8.57;100.00
15272;BME280;7737;51.578;7.268;2023-04-07T02:44:02;100840.84;;;8.58;100.00
15272;BME280;7737;51.578;7.268;2023-04-07T02:46:28;100840.00;;;8.58;100.00
15272;BME280;7737;51.578;7.268;2023-04-07T02:48:55;100842.78;;;8.55;100.00
15272;BME280;7737;51.578;7.268;2023-04-07T02:51:21;100835.44;;;8.62;100.00
15272;BME280;7737;51.578;7.268;2023-04-07T02:53:49;100841.53;;;8.64;100.00
15272;BME280;7737;51.578;7.268;2023-04-07T02:56:16;100844.91;;;8.45;100.00
15272;BME280;7737;51.578;7.268;2023-04-07T02:58:42;100844.78;;;8.48;100.00
15272;BME280;7737;51.578;7.268;2023-04-07T03:01:09;100842.06;;;8.50;100.00
15272;BME280;7737;51.578;7.268;2023-04-07T03:03:35;100839.00;;;8.39;100.00
15272;BME280;7737;51.578;7.268;2023-04-07T03:06:03;100843.03;;;8.49;100.00
15272;BME280;7737;51.578;7.268;2023-04-07T03:08:30;100843.03;;;8.49;100.00
15272;BME280;7737;51.578;7.268;2023-04-07T03:10:58;100836.53;;;8.56;100.00
15272;BME280;7737;51.578;7.268;2023-04-07T03:13:24;100838.03;;;8.63;100.00
15272;BME280;7737;51.578;7.268;2023-04-07T03:15:52;100844.31;;;8.61;100.00
15272;BME280;7737;51.578;7.268;2023-04-07T03:18:18;100841.50;;;8.65;100.00
15272;BME280;7737;51.578;7.268;2023-04-07T03:20:46;100842.16;;;8.48;100.00
15272;BME280;7737;51.578;7.268;2023-04-07T03:23:13;100846.28;;;8.55;100.00
15272;BME280;7737;51.578;7.268;2023-04-07T03:25:40;100843.59;;;8.57;100.00
15272;BME280;7737;51.578;7.268;2023-04-07T03:28:08;100847.03;;;8.59;100.00
15272;BME280;7737;51.578;7.268;2023-04-07T03:30:35;100841.72;;;8.59;100.00
15272;BME280;7737;51.578;7.268;2023-04-07T03:33:02;100844.44;;;8.57;100.00
15272;BME280;7737;51.578;7.268;2023-04-07T03:35:29;100849.03;;;8.52;100.00
15272;BME280;7737;51.578;7.268;2023-04-07T03:37:55;100847.38;;;8.50;100.00
15272;BME280;7737;51.578;7.268;2023-04-07T03:40:22;100848.19;;;8.52;100.00
15272;BME280;7737;51.578;7.268;2023-04-07T03:42:48;100842.78;;;8.55;100.00
15272;BME280;7737;51.578;7.268;2023-04-07T03:45:16;100848.25;;;8.50;100.00
15272;BME280;7737;51.578;7.268;2023-04-07T03:47:42;100848.31;;;8.49;100.00
15272;BME280;7737;51.578;7.268;2023-04-07T03:50:09;100846.56;;;8.48;100.00
15272;BME280;7737;51.578;7.268;2023-04-07T03:52:36;100848.88;;;8.57;100.00
15272;BME280;7737;51.578;7.268;2023-04-07T03:55:03;100862.81;;;8.62;100.00
15272;BME280;7737;51.578;7.268;2023-04-07T03:57:29;100857.63;;;8.59;100.00
15272;BME280;7737;51.578;7.268;2023-04-07T03:59:56;100857.97;;;8.50;100.00
15272;BME280;7737;51.578;7.268;2023-04-07T04:02:24;100857.84;;;8.53;100.00
15272;BME280;7737;51.578;7.268;2023-04-07T04:04:50;100860.59;;;8.51;100.00
15272;BME280;7737;51.578;7.268;2023-04-07T04:07:17;100857.63;;;8.59;100.00
15272;BME280;7737;51.578;7.268;2023-04-07T04:09:43;100852.44;;;8.56;100.00
15272;BME280;7737;51.578;7.268;2023-04-07T04:12:10;100859.59;;;8.54;100.00
15272;BME280;7737;51.578;7.268;2023-04-07T04:14:36;100863.84;;;8.58;100.00
15272;BME280;7737;51.578;7.268;2023-04-07T04:17:02;100863.22;;;8.51;100.00
15272;BME280;7737;51.578;7.268;2023-04-07T04:19:30;100864.94;;;8.52;100.00
15272;BME280;7737;51.578;7.268;2023-04-07T04:21:57;100873.28;;;8.65;100.00
15272;BME280;7737;51.578;7.268;2023-04-07T04:24:23;100866.63;;;8.55;100.00
15272;BME280;7737;51.578;7.268;2023-04-07T04:26:50;100879.06;;;8.53;100.00
15272;BME280;7737;51.578;7.268;2023-04-07T04:29:16;100870.19;;;8.54;100.00
15272;BME280;7737;51.578;7.268;2023-04-07T04:31:43;100875.38;;;8.57;100.00
15272;BME280;7737;51.578;7.268;2023-04-07T04:34:09;100880.00;;;8.52;100.00
15272;BME280;7737;51.578;7.268;2023-04-07T04:36:37;100885.03;;;8.58;100.00
15272;BME280;7737;51.578;7.268;2023-04-07T04:39:04;100892.06;;;8.59;100.00
15272;BME280;7737;51.578;7.268;2023-04-07T04:41:31;100888.84;;;8.51;100.00
15272;BME280;7737;51.578;7.268;2023-04-07T04:43:57;100890.47;;;8.55;100.00
15272;BME280;7737;51.578;7.268;2023-04-07T04:46:24;100897.47;;;8.56;100.00
15272;BME280;7737;51.578;7.268;2023-04-07T04:48:51;100905.66;;;8.50;100.00
15272;BME280;7737;51.578;7.268;2023-04-07T04:51:18;100904.69;;;8.52;100.00
15272;BME280;7737;51.578;7.268;2023-04-07T04:53:46;100901.34;;;8.47;100.00
15272;BME280;7737;51.578;7.268;2023-04-07T04:56:12;100907.41;;;8.51;100.00
15272;BME280;7737;51.578;7.268;2023-04-07T04:58:39;100904.69;;;8.52;100.00
15272;BME280;7737;51.578;7.268;2023-04-07T05:01:10;100896.69;;;8.54;100.00
15272;BME280;7737;51.578;7.268;2023-04-07T05:03:36;100903.16;;;8.47;100.00
15272;BME280;7737;51.578;7.268;2023-04-07T05:06:04;100907.41;;;8.51;100.00
15272;BME280;7737;51.578;7.268;2023-04-07T05:08:31;100912.81;;;8.48;100.00
15272;BME280;7737;51.578;7.268;2023-04-07T05:10:59;100896.91;;;8.48;100.00
15272;BME280;7737;51.578;7.268;2023-04-07T05:13:25;100898.53;;;8.52;100.00
15272;BME280;7737;51.578;7.268;2023-04-07T05:15:52;100898.47;;;8.53;100.00
15272;BME280;7737;51.578;7.268;2023-04-07T05:18:18;100899.75;;;8.43;100.00
15272;BME280;7737;51.578;7.268;2023-04-07T05:20:47;100901.50;;;8.44;100.00
15272;BME280;7737;51.578;7.268;2023-04-07T05:23:14;100902.22;;;8.48;100.00
15272;BME280;7737;51.578;7.268;2023-04-07T05:25:41;100907.50;;;8.48;100.00
15272;BME280;7737;51.578;7.268;2023-04-07T05:28:08;100917.31;;;8.46;100.00
15272;BME280;7737;51.578;7.268;2023-04-07T05:30:35;100916.44;;;8.45;100.00
15272;BME280;7737;51.578;7.268;2023-04-07T05:33:02;100914.66;;;8.46;100.00
15272;BME280;7737;51.578;7.268;2023-04-07T05:35:28;100917.09;;;8.52;100.00
15272;BME280;7737;51.578;7.268;2023-04-07T05:37:55;100921.16;;;8.37;100.00
15272;BME280;7737;51.578;7.268;2023-04-07T05:40:22;100917.19;;;8.49;100.00
15272;BME280;7737;51.578;7.268;2023-04-07T05:42:48;100920.56;;;8.52;100.00
15272;BME280;7737;51.578;7.268;2023-04-07T05:45:16;100922.69;;;8.44;100.00
15272;BME280;7737;51.578;7.268;2023-04-07T05:47:43;100923.59;;;8.43;100.00
15272;BME280;7737;51.578;7.268;2023-04-07T05:50:11;100927.22;;;8.41;100.00
15272;BME280;7737;51.578;7.268;2023-04-07T05:52:38;100936.75;;;8.45;100.00
15272;BME280;7737;51.578;7.268;2023-04-07T05:55:05;100929.19;;;8.36;100.00
15272;BME280;7737;51.578;7.268;2023-04-07T05:57:32;100936.03;;;8.41;100.00
15272;BME280;7737;51.578;7.268;2023-04-07T05:59:59;100938.00;;;8.36;100.00
15272;BME280;7737;51.578;7.268;2023-04-07T06:02:27;100937.81;;;8.41;100.00
15272;BME280;7737;51.578;7.268;2023-04-07T06:04:53;100942.47;;;8.34;100.00
15272;BME280;7737;51.578;7.268;2023-04-07T06:07:20;100938.03;;;8.35;100.00
15272;BME280;7737;51.578;7.268;2023-04-07T06:09:47;100948.63;;;8.35;100.00
15272;BME280;7737;51.578;7.268;2023-04-07T06:12:13;100945.94;;;8.36;100.00
15272;BME280;7737;51.578;7.268;2023-04-07T06:14:41;100960.03;;;8.37;100.00
15272;BME280;7737;51.578;7.268;2023-04-07T06:17:07;100956.34;;;8.41;100.00
15272;BME280;7737;51.578;7.268;2023-04-07T06:19:35;100951.84;;;8.43;100.00
15272;BME280;7737;51.578;7.268;2023-04-07T06:22:02;100959.03;;;8.39;100.00
15272;BME280;7737;51.578;7.268;2023-04-07T06:24:28;100966.00;;;8.42;100.00
15272;BME280;7737;51.578;7.268;2023-04-07T06:26:55;100966.19;;;8.37;100.00
15272;BME280;7737;51.578;7.268;2023-04-07T06:29:22;100966.94;;;8.41;100.00
15272;BME280;7737;51.578;7.268;2023-04-07T06:31:48;100967.66;;;8.46;100.00
15272;BME280;7737;51.578;7.268;2023-04-07T06:34:15;100978.03;;;8.52;100.00
15272;BME280;7737;51.578;7.268;2023-04-07T06:36:43;100974.81;;;8.42;100.00
15272;BME280;7737;51.578;7.268;2023-04-07T06:39:10;100976.97;;;8.56;100.00
15272;BME280;7737;51.578;7.268;2023-04-07T06:41:36;100975.00;;;8.38;100.00
15272;BME280;7737;51.578;7.268;2023-04-07T06:44:08;100971.31;;;8.42;100.00
15272;BME280;7737;51.578;7.268;2023-04-07T06:46:34;100985.03;;;8.53;100.00
15272;BME280;7737;51.578;7.268;2023-04-07T06:49:01;100989.13;;;8.38;100.00
15272;BME280;7737;51.578;7.268;2023-04-07T06:51:28;100983.31;;;8.52;100.00
15272;BME280;7737;51.578;7.268;2023-04-07T06:53:56;100993.66;;;8.58;100.00
15272;BME280;7737;51.578;7.268;2023-04-07T06:56:22;100990.13;;;8.59;100.00
15272;BME280;7737;51.578;7.268;2023-04-07T06:58:50;101000.94;;;8.53;100.00
15272;BME280;7737;51.578;7.268;2023-04-07T07:01:16;100998.16;;;8.56;100.00
15272;BME280;7737;51.578;7.268;2023-04-07T07:03:43;100998.25;;;8.54;100.00
15272;BME280;7737;51.578;7.268;2023-04-07T07:06:10;101001.69;;;8.56;100.00
15272;BME280;7737;51.578;7.268;2023-04-07T07:08:37;101005.78;;;8.65;100.00
15272;BME280;7737;51.578;7.268;2023-04-07T07:11:05;101003.19;;;8.64;100.00
15272;BME280;7737;51.578;7.268;2023-04-07T07:13:31;101007.16;;;8.52;100.00
15272;BME280;7737;51.578;7.268;2023-04-07T07:15:58;101005.44;;;8.51;100.00
15272;BME280;7737;51.578;7.268;2023-04-07T07:18:25;101006.59;;;8.67;100.00
15272;BME280;7737;51.578;7.268;2023-04-07T07:20:51;101010.09;;;8.44;100.00
15272;BME280;7737;51.578;7.268;2023-04-07T07:23:18;101015.41;;;8.68;100.00
15272;BME280;7737;51.578;7.268;2023-04-07T07:25:44;101016.16;;;8.71;100.00
15272;BME280;7737;51.578;7.268;2023-04-07T07:28:12;101018.66;;;8.76;100.00
15272;BME280;7737;51.578;7.268;2023-04-07T07:30:40;101023.88;;;8.77;100.00
15272;BME280;7737;51.578;7.268;2023-04-07T07:33:06;101017.81;;;8.74;100.00
15272;BME280;7737;51.578;7.268;2023-04-07T07:35:33;101025.56;;;8.80;100.00
15272;BME280;7737;51.578;7.268;2023-04-07T07:38:02;101024.69;;;8.79;100.00
15272;BME280;7737;51.578;7.268;2023-04-07T07:40:28;101024.22;;;8.91;100.00
15272;BME280;7737;51.578;7.268;2023-04-07T07:42:55;101024.22;;;8.91;100.00
15272;BME280;7737;51.578;7.268;2023-04-07T07:45:23;101030.34;;;8.93;100.00
15272;BME280;7737;51.578;7.268;2023-04-07T07:47:49;101035.88;;;9.10;100.00
15272;BME280;7737;51.578;7.268;2023-04-07T07:50:16;101047.28;;;9.12;100.00
15272;BME280;7737;51.578;7.268;2023-04-07T07:52:42;101037.53;;;8.90;100.00
15272;BME280;7737;51.578;7.268;2023-04-07T07:55:09;101044.41;;;9.18;100.00
15272;BME280;7737;51.578;7.268;2023-04-07T07:57:36;101048.59;;;9.24;100.00
15272;BME280;7737;51.578;7.268;2023-04-07T08:00:04;101052.91;;;9.27;100.00
15272;BME280;7737;51.578;7.268;2023-04-07T08:02:32;101055.00;;;9.18;100.00
15272;BME280;7737;51.578;7.268;2023-04-07T08:05:00;101060.78;;;8.83;100.00
15272;BME280;7737;51.578;7.268;2023-04-07T08:07:27;101057.03;;;9.12;100.00
15272;BME280;7737;51.578;7.268;2023-04-07T08:09:54;101061.56;;;9.32;100.00
15272;BME280;7737;51.578;7.268;2023-04-07T08:12:20;101054.34;;;9.35;100.00
15272;BME280;7737;51.578;7.268;2023-04-07T08:14:47;101069.03;;;9.44;100.00
15272;BME280;7737;51.578;7.268;2023-04-07T08:17:14;101066.44;;;9.21;100.00
15272;BME280;7737;51.578;7.268;2023-04-07T08:19:42;101062.97;;;9.18;100.00
15272;BME280;7737;51.578;7.268;2023-04-07T08:22:08;101063.88;;;9.17;100.00
15272;BME280;7737;51.578;7.268;2023-04-07T08:24:35;101060.31;;;9.18;100.00
15272;BME280;7737;51.578;7.268;2023-04-07T08:27:01;101064.78;;;9.16;100.00
15272;BME280;7737;51.578;7.268;2023-04-07T08:29:28;101060.44;;;9.15;100.00
15272;BME280;7737;51.578;7.268;2023-04-07T08:31:55;101065.84;;;9.12;100.00
15272;BME280;7737;51.578;7.268;2023-04-07T08:34:21;101071.66;;;8.99;100.00
15272;BME280;7737;51.578;7.268;2023-04-07T08:36:49;101067.56;;;9.13;100.00
15272;BME280;7737;51.578;7.268;2023-04-07T08:39:16;101080.66;;;9.18;100.00
15272;BME280;7737;51.578;7.268;2023-04-07T08:41:43;101077.19;;;9.16;100.00
15272;BME280;7737;51.578;7.268;2023-04-07T08:44:12;101073.66;;;9.39;100.00
15272;BME280;7737;51.578;7.268;2023-04-07T08:46:39;101078.97;;;8.92;100.00
15272;BME280;7737;51.578;7.268;2023-04-07T08:49:07;101087.34;;;9.28;100.00
15272;BME280;7737;51.578;7.268;2023-04-07T08:51:37;101085.06;;;9.41;100.00
15272;BME280;7737;51.578;7.268;2023-04-07T08:54:07;101086.97;;;9.37;100.00
15272;BME280;7737;51.578;7.268;2023-04-07T08:56:36;101080.97;;;9.32;100.00
15272;BME280;7737;51.578;7.268;2023-04-07T08:59:05;101084.31;;;9.15;100.00
15272;BME280;7737;51.578;7.268;2023-04-07T09:01:33;101090.03;;;9.27;100.00
15272;BME280;7737;51.578;7.268;2023-04-07T09:04:01;101093.97;;;9.16;100.00
15272;BME280;7737;51.578;7.268;2023-04-07T09:06:28;101092.28;;;9.37;100.00
15272;BME280;7737;51.578;7.268;2023-04-07T09:08:56;101096.75;;;9.37;100.00
15272;BME280;7737;51.578;7.268;2023-04-07T09:11:25;101095.34;;;9.27;100.00
15272;BME280;7737;51.578;7.268;2023-04-07T09:13:52;101097.19;;;9.25;100.00
15272;BME280;7737;51.578;7.268;2023-04-07T09:16:18;101105.22;;;9.46;100.00
15272;BME280;7737;51.578;7.268;2023-04-07T09:18:45;101109.56;;;9.26;100.00
15272;BME280;7737;51.578;7.268;2023-04-07T09:21:12;101098.00;;;9.50;100.00
15272;BME280;7737;51.578;7.268;2023-04-07T09:23:40;101096.75;;;9.58;100.00
15272;BME280;7737;51.578;7.268;2023-04-07T09:26:21;101109.47;;;9.72;100.00
15272;BME280;7737;51.578;7.268;2023-04-07T09:28:51;101099.63;;;9.97;100.00
15272;BME280;7737;51.578;7.268;2023-04-07T09:31:18;101104.84;;;9.77;100.00
15272;BME280;7737;51.578;7.268;2023-04-07T09:33:46;101106.66;;;9.55;100.00
15272;BME280;7737;51.578;7.268;2023-04-07T09:36:12;101113.66;;;9.56;100.00
15272;BME280;7737;51.578;7.268;2023-04-07T09:38:40;101097.31;;;9.88;100.00
15272;BME280;7737;51.578;7.268;2023-04-07T09:41:08;101099.25;;;9.63;100.00
15272;BME280;7737;51.578;7.268;2023-04-07T09:43:36;101098.44;;;9.82;100.00
15272;BME280;7737;51.578;7.268;2023-04-07T09:46:09;101096.28;;;9.92;100.00
15272;BME280;7737;51.578;7.268;2023-04-07T09:48:36;101096.53;;;9.86;100.00
15272;BME280;7737;51.578;7.268;2023-04-07T09:51:08;101099.31;;;9.83;100.00
15272;BME280;7737;51.578;7.268;2023-04-07T09:53:42;101110.25;;;9.97;100.00
15272;BME280;7737;51.578;7.268;2023-04-07T09:56:09;101099.84;;;9.91;100.00
15272;BME280;7737;51.578;7.268;2023-04-07T09:58:37;101105.06;;;9.94;100.00
15272;BME280;7737;51.578;7.268;2023-04-07T10:01:06;101104.41;;;10.09;100.00
15272;BME280;7737;51.578;7.268;2023-04-07T10:03:34;101108.31;;;10.01;100.00
15272;BME280;7737;51.578;7.268;2023-04-07T10:06:02;101116.03;;;9.85;100.00
15272;BME280;7737;51.578;7.268;2023-04-07T10:08:30;101109.25;;;10.00;100.00
15272;BME280;7737;51.578;7.268;2023-04-07T10:10:58;101112.69;;;9.80;100.00
15272;BME280;7737;51.578;7.268;2023-04-07T10:13:27;101106.78;;;9.95;100.00
15272;BME280;7737;51.578;7.268;2023-04-07T10:15:54;101116.03;;;9.85;100.00
15272;BME280;7737;51.578;7.268;2023-04-07T10:18:22;101116.72;;;9.90;100.00
15272;BME280;7737;51.578;7.268;2023-04-07T10:20:53;101109.38;;;9.97;100.00
15272;BME280;7737;51.578;7.268;2023-04-07T10:23:25;101119.81;;;9.58;100.00
15272;BME280;7737;51.578;7.268;2023-04-07T10:25:54;101123.81;;;9.68;100.00
15272;BME280;7737;51.578;7.268;2023-04-07T10:28:25;101115.47;;;9.77;100.00
15272;BME280;7737;51.578;7.268;2023-04-07T10:30:53;101128.28;;;9.89;100.00
15272;BME280;7737;51.578;7.268;2023-04-07T10:33:45;101122.63;;;9.75;100.00
15272;BME280;7737;51.578;7.268;2023-04-07T10:36:13;101128.13;;;9.70;100.00
15272;BME280;7737;51.578;7.268;2023-04-07T10:38:40;101128.63;;;9.80;100.00
15272;BME280;7737;51.578;7.268;2023-04-07T10:41:31;101132.13;;;9.82;100.00
15272;BME280;7737;51.578;7.268;2023-04-07T10:43:59;101130.59;;;9.75;100.00
15272;BME280;7737;51.578;7.268;2023-04-07T10:47:01;101132.00;;;9.62;100.00
15272;BME280;7737;51.578;7.268;2023-04-07T10:49:28;101134.66;;;9.62;100.00
15272;BME280;7737;51.578;7.268;2023-04-07T10:52:23;101127.88;;;9.55;100.00
15272;BME280;7737;51.578;7.268;2023-04-07T10:58:21;101137.28;;;9.85;100.00
15272;BME280;7737;51.578;7.268;2023-04-07T11:01:18;101136.56;;;9.82;100.00
15272;BME280;7737;51.578;7.268;2023-04-07T11:03:56;101146.97;;;9.86;100.00
15272;BME280;7737;51.578;7.268;2023-04-07T11:06:24;101144.31;;;9.86;100.00
15272;BME280;7737;51.578;7.268;2023-04-07T11:08:53;101141.25;;;9.97;100.00
15272;BME280;7737;51.578;7.268;2023-04-07T11:11:35;101149.63;;;9.86;100.00
15272;BME280;7737;51.578;7.268;2023-04-07T11:14:02;101151.97;;;9.94;100.00
15272;BME280;7737;51.578;7.268;2023-04-07T11:16:37;101149.00;;;10.01;100.00
15272;BME280;7737;51.578;7.268;2023-04-07T11:19:04;101149.78;;;10.05;100.00
15272;BME280;7737;51.578;7.268;2023-04-07T11:21:30;101151.94;;;9.95;100.00
15272;BME280;7737;51.578;7.268;2023-04-07T11:23:58;101159.53;;;10.04;100.00
15272;BME280;7737;51.578;7.268;2023-04-07T11:26:26;101159.69;;;9.78;100.00
15272;BME280;7737;51.578;7.268;2023-04-07T11:28:54;101159.91;;;9.95;100.00
15272;BME280;7737;51.578;7.268;2023-04-07T11:31:21;101164.22;;;9.98;100.00
15272;BME280;7737;51.578;7.268;2023-04-07T11:33:51;101156.63;;;10.10;100.00
15272;BME280;7737;51.578;7.268;2023-04-07T11:36:25;101163.34;;;9.97;100.00
15272;BME280;7737;51.578;7.268;2023-04-07T11:38:52;101167.72;;;9.76;100.00
15272;BME280;7737;51.578;7.268;2023-04-07T11:41:21;101168.31;;;9.85;100.00
15272;BME280;7737;51.578;7.268;2023-04-07T11:43:48;101168.53;;;9.78;100.00
15272;BME280;7737;51.578;7.268;2023-04-07T11:46:16;101166.22;;;9.93;100.00
15272;BME280;7737;51.578;7.268;2023-04-07T11:48:43;101166.00;;;9.97;100.00
15272;BME280;7737;51.578;7.268;2023-04-07T11:51:15;101166.47;;;10.08;100.00
15272;BME280;7737;51.578;7.268;2023-04-07T11:53:42;101165.81;;;10.02;100.00
15272;BME280;7737;51.578;7.268;2023-04-07T11:56:11;101177.00;;;9.88;100.00
15272;BME280;7737;51.578;7.268;2023-04-07T11:58:47;101180.13;;;9.76;100.00
15272;BME280;7737;51.578;7.268;2023-04-07T12:01:14;101176.00;;;10.14;100.00
15272;BME280;7737;51.578;7.268;2023-04-07T12:03:54;101174.66;;;10.02;100.00
15272;BME280;7737;51.578;7.268;2023-04-07T12:06:26;101178.78;;;10.09;100.00
15272;BME280;7737;51.578;7.268;2023-04-07T12:08:54;101185.41;;;9.99;100.00
15272;BME280;7737;51.578;7.268;2023-04-07T12:11:21;101189.69;;;10.03;100.00
15272;BME280;7737;51.578;7.268;2023-04-07T12:13:50;101190.59;;;10.02;100.00
15272;BME280;7737;51.578;7.268;2023-04-07T12:16:17;101193.50;;;9.96;100.00
15272;BME280;7737;51.578;7.268;2023-04-07T12:18:44;101193.13;;;10.05;100.00
15272;BME280;7737;51.578;7.268;2023-04-07T12:21:10;101194.94;;;10.05;100.00
15272;BME280;7737;51.578;7.268;2023-04-07T12:23:37;101197.72;;;9.78;100.00
15272;BME280;7737;51.578;7.268;2023-04-07T12:26:03;101200.78;;;9.91;100.00
15272;BME280;7737;51.578;7.268;2023-04-07T12:28:30;101204.34;;;10.13;100.00
15272;BME280;7737;51.578;7.268;2023-04-07T12:30:58;101201.88;;;9.86;100.00
15272;BME280;7737;51.578;7.268;2023-04-07T12:33:24;101207.44;;;10.01;100.00
15272;BME280;7737;51.578;7.268;2023-04-07T12:35:51;101202.03;;;10.04;100.00
15272;BME280;7737;51.578;7.268;2023-04-07T12:38:18;101204.91;;;9.98;100.00
15272;BME280;7737;51.578;7.268;2023-04-07T12:40:45;101203.47;;;9.68;100.00
15272;BME280;7737;51.578;7.268;2023-04-07T12:43:11;101212.34;;;9.67;100.00
15272;BME280;7737;51.578;7.268;2023-04-07T12:45:38;101214.06;;;9.91;100.00
15272;BME280;7737;51.578;7.268;2023-04-07T12:48:06;101215.94;;;9.88;100.00
15272;BME280;7737;51.578;7.268;2023-04-07T12:50:34;101216.22;;;9.82;100.00
15272;BME280;7737;51.578;7.268;2023-04-07T12:53:00;101212.00;;;9.76;100.00
15272;BME280;7737;51.578;7.268;2023-04-07T12:55:29;101218.56;;;10.12;100.00
15272;BME280;7737;51.578;7.268;2023-04-07T12:57:57;101224.06;;;10.06;100.00
15272;BME280;7737;51.578;7.268;2023-04-07T13:00:24;101219.69;;;10.05;100.00
15272;BME280;7737;51.578;7.268;2023-04-07T13:02:50;101223.66;;;9.95;100.00
15272;BME280;7737;51.578;7.268;2023-04-07T13:05:18;101225.84;;;9.84;100.00
15272;BME280;7737;51.578;7.268;2023-04-07T13:07:45;101220.72;;;10.01;100.00